Time;durP1;ratioP1;P1;durP2;ratioP2;P2;SDS_P1;SDS_P2;PMS_P1;PMS_P2;Temp;Humidity;BMP_temperature;BMP_pressure;BME280_temperature;BME280_humidity;BME280_pressure;Samples;Min_cycle;Max_cycle;Signal;HPM_P1;HPM_P2
2021/10/27 00:01:38;;;;;;;4.43;3.00;;;9.10;48.10;;;;;;5096103;28;20043;-72
2021/10/27 00:04:04;;;;;;;3.88;2.70;;;9.10;53.80;;;;;;5096707;28;20054;-73
2021/10/27 00:06:31;;;;;;;7.80;2.50;;;9.10;55.70;;;;;;5096063;28;20118;-73
2021/10/27 00:08:56;;;;;;;3.97;2.50;;;9.10;61.50;;;;;;5096733;28;20082;-73
2021/10/27 00:11:22;;;;;;;5.63;2.72;;;9.10;58.00;;;;;;5095797;28;20036;-72
2021/10/27 00:13:48;;;;;;;2.58;2.15;;;9.10;52.30;;;;;;5095495;28;20115;-72
2021/10/27 00:16:14;;;;;;;5.53;2.53;;;9.00;57.20;;;;;;5095813;28;20031;-72
2021/10/27 00:18:40;;;;;;;2.65;2.00;;;8.90;50.70;;;;;;5096593;28;20086;-72
2021/10/27 00:21:06;;;;;;;4.85;2.10;;;8.80;54.40;;;;;;5095843;28;20048;-72
2021/10/27 00:23:32;;;;;;;4.63;2.55;;;8.90;47.70;;;;;;5096028;28;20441;-72
2021/10/27 00:25:57;;;;;;;5.30;2.80;;;8.80;48.60;;;;;;5095846;28;20133;-72
2021/10/27 00:28:23;;;;;;;4.20;2.05;;;8.70;54.50;;;;;;5096091;28;20040;-72
2021/10/27 00:30:49;;;;;;;3.72;2.47;;;8.80;49.60;;;;;;5095406;28;20044;-72
2021/10/27 00:33:16;;;;;;;12.95;9.68;;;8.70;51.50;;;;;;5095381;28;20197;-72
2021/10/27 00:35:43;;;;;;;8.15;6.65;;;8.60;59.10;;;;;;5095364;28;20042;-72
2021/10/27 00:38:08;;;;;;;3.53;2.40;;;8.50;58.10;;;;;;5095348;28;20161;-72
2021/10/27 00:40:34;;;;;;;10.57;5.82;;;8.60;54.90;;;;;;5095593;28;20048;-72
2021/10/27 00:43:00;;;;;;;18.63;8.75;;;8.50;52.90;;;;;;5095725;28;20130;-72
2021/10/27 00:45:26;;;;;;;11.57;5.40;;;8.50;60.00;;;;;;5095977;28;20043;-72
2021/10/27 00:47:52;;;;;;;4.85;3.55;;;8.50;56.90;;;;;;5095397;28;20394;-72
2021/10/27 00:50:18;;;;;;;6.57;2.92;;;8.40;55.00;;;;;;5095371;28;20040;-72
2021/10/27 00:52:44;;;;;;;4.38;2.38;;;8.40;54.90;;;;;;5095589;28;20036;-72
2021/10/27 00:55:10;;;;;;;3.15;2.40;;;8.30;50.00;;;;;;5095603;28;20136;-72
2021/10/27 00:57:37;;;;;;;4.13;2.20;;;8.20;55.40;;;;;;5095709;28;20031;-72
2021/10/27 01:00:07;;;;;;;2.58;2.00;;;8.10;58.40;;;;;;5095474;28;20379;-72
2021/10/27 01:02:33;;;;;;;4.00;2.70;;;8.20;62.40;;;;;;5095166;28;20035;-72
2021/10/27 01:04:59;;;;;;;7.57;4.50;;;8.20;43.40;;;;;;5095317;28;20044;-72
2021/10/27 01:07:25;;;;;;;3.90;2.20;;;8.10;54.60;;;;;;5094969;28;20123;-72
2021/10/27 01:09:51;;;;;;;4.65;2.28;;;8.10;49.80;;;;;;5095379;28;20040;-72
2021/10/27 01:12:17;;;;;;;4.60;2.30;;;8.10;54.60;;;;;;5095266;28;20036;-72
2021/10/27 01:14:47;;;;;;;4.13;2.38;;;8.10;55.80;;;;;;5095236;28;20048;-72
2021/10/27 01:17:17;;;;;;;5.25;2.55;;;8.10;54.40;;;;;;5095127;28;20032;-72
2021/10/27 01:19:55;;;;;;;5.03;3.20;;;8.10;49.90;;;;;;5095598;28;20055;-72
2021/10/27 01:22:26;;;;;;;3.50;2.15;;;8.10;43.60;;;;;;5095083;28;20103;-72
2021/10/27 01:24:53;;;;;;;26.67;21.88;;;8.00;46.70;;;;;;5095243;28;20143;-72
2021/10/27 01:27:20;;;;;;;4.38;3.45;;;7.90;46.10;;;;;;5094335;28;20040;-72
2021/10/27 01:29:46;;;;;;;6.20;3.03;;;8.00;41.20;;;;;;5094803;28;20052;-72
2021/10/27 01:32:21;;;;;;;4.53;2.50;;;7.90;47.50;;;;;;5095090;28;20495;-72
2021/10/27 01:34:47;;;;;;;3.42;2.58;;;7.90;48.20;;;;;;5095392;28;20036;-72
2021/10/27 01:37:13;;;;;;;3.10;2.75;;;7.80;58.90;;;;;;5095069;28;20039;-72
2021/10/27 01:39:39;;;;;;;4.28;2.70;;;7.80;58.70;;;;;;5094597;28;20043;-73
2021/10/27 01:42:05;;;;;;;7.63;3.17;;;7.80;54.60;;;;;;5094991;28;20040;-72
2021/10/27 01:44:31;;;;;;;8.60;4.82;;;7.70;51.90;;;;;;5094811;28;20044;-73
2021/10/27 01:46:57;;;;;;;3.78;2.88;;;7.70;54.00;;;;;;5094665;28;20360;-72
2021/10/27 01:49:23;;;;;;;3.13;2.17;;;7.70;50.90;;;;;;5094495;28;20036;-73
2021/10/27 01:51:50;;;;;;;3.70;2.40;;;7.60;48.40;;;;;;5094477;28;20040;-72
2021/10/27 01:54:16;;;;;;;5.10;2.80;;;7.60;49.80;;;;;;5094688;28;20040;-72
2021/10/27 01:56:42;;;;;;;5.68;2.22;;;7.50;52.70;;;;;;5094916;28;20040;-72
2021/10/27 01:59:08;;;;;;;3.83;2.15;;;7.50;56.70;;;;;;5094937;28;20042;-72
2021/10/27 02:01:34;;;;;;;3.47;2.30;;;7.50;50.10;;;;;;5094719;28;20135;-72
2021/10/27 02:04:00;;;;;;;71.10;49.20;;;7.40;51.30;;;;;;5094311;28;20110;-72
2021/10/27 02:06:26;;;;;;;31.63;22.30;;;7.30;48.90;;;;;;5094627;28;20044;-72
2021/10/27 02:08:52;;;;;;;8.25;4.80;;;7.40;47.80;;;;;;5094520;28;20401;-72
2021/10/27 02:11:18;;;;;;;6.30;3.67;;;7.40;48.20;;;;;;5094559;28;20036;-72
2021/10/27 02:13:43;;;;;;;5.97;3.72;;;7.40;53.60;;;;;;5094618;28;20044;-72
2021/10/27 02:16:09;;;;;;;5.00;3.47;;;7.30;53.00;;;;;;5094614;28;20522;-72
2021/10/27 02:18:36;;;;;;;5.10;3.60;;;7.30;56.60;;;;;;5094922;28;20047;-72
2021/10/27 02:21:01;;;;;;;6.93;2.90;;;7.30;55.10;;;;;;5094684;28;20047;-72
2021/10/27 02:23:27;;;;;;;17.05;4.78;;;7.30;50.60;;;;;;5094754;28;20048;-72
2021/10/27 02:25:53;;;;;;;3.45;2.88;;;7.30;47.40;;;;;;5094201;28;20071;-72
2021/10/27 02:28:19;;;;;;;2.92;2.33;;;7.20;53.30;;;;;;5094585;28;20036;-72
2021/10/27 02:30:46;;;;;;;10.15;3.60;;;7.20;46.60;;;;;;5094518;28;20040;-72
2021/10/27 02:33:11;;;;;;;5.05;3.42;;;7.20;53.90;;;;;;5094172;28;20032;-72
2021/10/27 02:35:37;;;;;;;3.78;2.63;;;7.20;57.70;;;;;;5094149;28;20510;-72
2021/10/27 02:38:03;;;;;;;3.63;2.17;;;7.20;50.10;;;;;;5097193;28;20032;-72
2021/10/27 02:40:29;;;;;;;3.13;2.47;;;7.20;40.90;;;;;;5098210;28;20127;-72
2021/10/27 02:42:55;;;;;;;2.38;2.10;;;7.10;39.40;;;;;;5097592;28;20050;-72
2021/10/27 02:45:21;;;;;;;8.77;6.93;;;7.10;48.10;;;;;;5097796;28;20046;-72
2021/10/27 02:47:46;;;;;;;3.95;2.45;;;7.00;47.80;;;;;;5097731;28;20031;-72
2021/10/27 02:50:15;;;;;;;3.40;2.42;;;7.00;53.40;;;;;;5079187;28;20042;-72
2021/10/27 02:52:44;;;;;;;3.40;2.42;;;6.90;49.30;;;;;;5097630;28;20067;-72
2021/10/27 02:55:11;;;;;;;14.38;7.95;;;6.90;42.90;;;;;;5097315;28;20044;-72
2021/10/27 02:57:38;;;;;;;14.20;6.63;;;6.90;47.80;;;;;;5097606;28;20079;-72
2021/10/27 03:00:08;;;;;;;7.63;4.15;;;6.90;53.70;;;;;;5097234;28;20036;-72
2021/10/27 03:02:35;;;;;;;2.53;2.22;;;6.80;41.90;;;;;;5097091;28;20036;-72
2021/10/27 03:05:01;;;;;;;4.85;2.60;;;6.90;42.50;;;;;;5096943;28;20052;-72
2021/10/27 03:07:27;;;;;;;3.20;2.60;;;6.80;42.70;;;;;;5097336;28;20036;-72
2021/10/27 03:09:53;;;;;;;4.78;2.40;;;6.70;44.80;;;;;;5097332;28;20036;-72
2021/10/27 03:12:19;;;;;;;2.90;2.47;;;6.70;50.40;;;;;;5096970;28;20036;-72
2021/10/27 03:14:45;;;;;;;3.70;2.33;;;6.70;47.90;;;;;;5097240;28;20112;-72
2021/10/27 03:17:16;;;;;;;2.55;2.17;;;6.80;40.60;;;;;;5096753;28;20043;-72
2021/10/27 03:19:41;;;;;;;3.28;2.13;;;6.70;44.50;;;;;;5097717;28;20057;-72
2021/10/27 03:22:07;;;;;;;2.88;2.40;;;6.70;45.70;;;;;;5096771;28;20040;-72
2021/10/27 03:24:33;;;;;;;2.78;1.90;;;6.60;35.10;;;;;;5096968;28;20051;-72
2021/10/27 03:26:59;;;;;;;3.78;3.35;;;6.60;35.30;;;;;;5097013;28;20046;-72
2021/10/27 03:29:25;;;;;;;9.60;8.02;;;6.60;34.00;;;;;;5097281;28;20398;-72
2021/10/27 03:31:51;;;;;;;4.43;3.17;;;6.70;36.50;;;;;;5096733;28;20036;-72
2021/10/27 03:34:16;;;;;;;4.00;2.65;;;6.60;37.00;;;;;;5096566;28;20048;-72
2021/10/27 03:36:42;;;;;;;3.58;3.00;;;6.50;40.60;;;;;;5096826;28;20032;-72
2021/10/27 03:39:09;;;;;;;4.47;2.75;;;6.50;41.70;;;;;;5096449;28;20040;-72
2021/10/27 03:41:35;;;;;;;4.03;2.28;;;6.50;38.20;;;;;;5096207;28;20147;-72
2021/10/27 03:44:02;;;;;;;4.68;2.20;;;6.40;40.30;;;;;;5096314;28;20139;-72
2021/10/27 03:46:28;;;;;;;4.57;2.38;;;6.40;41.20;;;;;;5096453;28;20061;-72
2021/10/27 03:48:53;;;;;;;6.13;2.47;;;6.40;39.80;;;;;;5095996;28;20053;-72
2021/10/27 03:51:20;;;;;;;9.73;5.72;;;6.50;42.90;;;;;;5096469;28;20506;-72
2021/10/27 03:53:45;;;;;;;4.72;3.35;;;6.50;43.60;;;;;;5096419;28;20040;-72
2021/10/27 03:56:11;;;;;;;5.68;3.08;;;6.60;34.30;;;;;;5096688;28;20418;-72
2021/10/27 03:58:37;;;;;;;3.63;2.63;;;6.50;30.00;;;;;;5096702;28;20388;-72
2021/10/27 04:01:03;;;;;;;5.13;3.58;;;6.40;37.30;;;;;;5095840;28;20035;-72
2021/10/27 04:03:29;;;;;;;4.38;2.75;;;6.30;36.10;;;;;;5096439;28;20047;-72
2021/10/27 04:05:56;;;;;;;3.05;2.08;;;6.30;43.30;;;;;;5095913;28;20063;-72
2021/10/27 04:08:22;;;;;;;4.40;2.28;;;6.40;32.50;;;;;;5095900;28;20044;-72
2021/10/27 04:10:47;;;;;;;3.92;2.85;;;6.40;31.40;;;;;;5096416;28;20036;-72
2021/10/27 04:13:17;;;;;;;4.53;3.55;;;6.40;36.60;;;;;;5095787;28;20109;-72
2021/10/27 04:15:44;;;;;;;3.77;2.67;;;6.20;34.10;;;;;;5095896;28;20036;-72
2021/10/27 04:18:10;;;;;;;4.13;2.33;;;6.20;43.30;;;;;;5095900;28;20632;-72
2021/10/27 04:20:37;;;;;;;2.50;1.90;;;6.30;31.80;;;;;;5095877;28;20036;-72
2021/10/27 04:23:04;;;;;;;14.85;10.43;;;6.30;42.50;;;;;;5095598;28;20036;-72
2021/10/27 04:25:30;;;;;;;17.55;11.25;;;6.30;27.10;;;;;;5095854;28;20090;-72
2021/10/27 04:27:56;;;;;;;34.03;20.67;;;6.20;32.60;;;;;;5095831;28;20039;-72
2021/10/27 04:30:21;;;;;;;11.05;7.43;;;6.10;28.60;;;;;;5096059;28;20039;-72
2021/10/27 04:32:47;;;;;;;8.48;4.97;;;6.10;34.60;;;;;;5095587;28;20506;-72
2021/10/27 04:35:15;;;;;;;106.30;44.20;;;6.10;32.60;;;;;;5095667;28;20161;-72
2021/10/27 04:37:43;;;;;;;13.88;7.43;;;6.10;28.90;;;;;;5095947;28;20051;-72
2021/10/27 04:40:12;;;;;;;8.00;4.97;;;6.10;29.30;;;;;;5095329;28;20089;-72
2021/10/27 04:42:39;;;;;;;7.15;4.85;;;6.10;30.30;;;;;;5095936;28;20479;-72
2021/10/27 04:45:06;;;;;;;6.15;3.75;;;6.20;27.90;;;;;;5095711;28;20051;-72
2021/10/27 04:47:32;;;;;;;4.22;3.05;;;6.20;27.50;;;;;;5095481;28;20044;-72
2021/10/27 04:49:57;;;;;;;3.92;2.30;;;6.10;30.40;;;;;;5095711;28;20047;-72
2021/10/27 04:52:24;;;;;;;3.55;2.53;;;6.10;28.00;;;;;;5095583;28;20459;-71
2021/10/27 04:54:50;;;;;;;3.63;2.63;;;6.00;23.70;;;;;;5095897;28;20040;-72
2021/10/27 04:57:17;;;;;;;3.22;2.60;;;6.00;29.60;;;;;;5095651;28;20036;-72
2021/10/27 04:59:44;;;;;;;6.55;2.40;;;6.10;25.50;;;;;;5095596;28;20111;-72
2021/10/27 05:02:11;;;;;;;4.72;3.08;;;6.00;26.80;;;;;;5076547;28;20387;-72
2021/10/27 05:04:37;;;;;;;8.68;5.57;;;5.90;32.70;;;;;;5095286;28;20067;-71
2021/10/27 05:07:05;;;;;;;10.05;6.53;;;5.90;33.90;;;;;;5095381;28;20085;-72
2021/10/27 05:09:31;;;;;;;6.30;2.90;;;6.00;27.60;;;;;;5095871;28;20043;-73
2021/10/27 05:11:58;;;;;;;6.03;3.88;;;6.00;23.30;;;;;;5097979;28;20089;-72
2021/10/27 05:14:24;;;;;;;6.93;2.53;;;5.80;17.50;;;;;;5094739;28;20040;-73
2021/10/27 05:16:49;;;;;;;3.92;2.50;;;5.70;29.60;;;;;;5094948;28;20063;-73
2021/10/27 05:19:15;;;;;;;5.85;2.67;;;5.80;29.20;;;;;;5095541;28;20589;-73
2021/10/27 05:21:41;;;;;;;5.05;2.97;;;5.80;30.40;;;;;;5094241;28;20438;-73
2021/10/27 05:24:07;;;;;;;4.40;2.65;;;5.70;33.20;;;;;;5095050;28;20050;-73
2021/10/27 05:26:33;;;;;;;4.45;3.00;;;5.80;26.00;;;;;;5094260;28;20043;-71
2021/10/27 05:28:59;;;;;;;4.47;2.78;;;5.80;25.30;;;;;;5094416;28;20051;-72
2021/10/27 05:31:24;;;;;;;5.30;3.35;;;5.90;23.90;;;;;;5094740;28;20040;-72
2021/10/27 05:33:50;;;;;;;17.13;10.02;;;5.80;22.30;;;;;;5094998;28;20044;-72
2021/10/27 05:36:17;;;;;;;3.92;3.30;;;5.70;18.10;;;;;;5094937;28;20036;-72
2021/10/27 05:38:42;;;;;;;9.95;5.88;;;5.60;20.20;;;;;;5095574;28;20036;-72
2021/10/27 05:41:08;;;;;;;6.85;3.53;;;5.60;30.20;;;;;;5095042;28;20109;-72
2021/10/27 05:43:35;;;;;;;7.20;3.65;;;5.70;30.30;;;;;;5095100;28;20430;-73
2021/10/27 05:46:02;;;;;;;3.72;2.83;;;5.70;24.70;;;;;;5094397;28;20035;-72
2021/10/27 05:48:39;;;;;;;5.07;2.58;;;5.60;25.20;;;;;;5094883;28;20040;-72
2021/10/27 05:56:18;;;;;;;7.70;3.10;;;5.70;21.90;;;;;;5094567;28;20082;-72
2021/10/27 05:58:44;;;;;;;5.85;3.72;;;5.50;27.60;;;;;;5094501;28;20082;-72
2021/10/27 06:01:10;;;;;;;3.90;2.78;;;5.50;41.60;;;;;;5094315;28;20040;-72
2021/10/27 06:03:37;;;;;;;27.88;18.15;;;5.50;35.60;;;;;;5093137;28;20047;-73
2021/10/27 06:06:03;;;;;;;31.05;21.08;;;5.60;27.10;;;;;;5076577;28;20057;-72
2021/10/27 06:08:29;;;;;;;9.43;5.82;;;5.40;25.90;;;;;;5094688;28;20036;-73
2021/10/27 06:10:58;;;;;;;34.88;16.73;;;5.40;32.70;;;;;;5094128;28;20120;-73
2021/10/27 06:13:32;;;;;;;18.55;11.93;;;5.40;29.50;;;;;;5097672;28;20032;-73
2021/10/27 06:15:58;;;;;;;4.47;3.28;;;5.30;26.40;;;;;;5097471;28;20036;-72
2021/10/27 06:18:23;;;;;;;5.88;2.67;;;5.30;22.80;;;;;;5098914;28;20032;-73
2021/10/27 06:20:50;;;;;;;3.97;2.90;;;5.30;26.10;;;;;;5098290;28;20040;-72
2021/10/27 06:23:16;;;;;;;3.83;2.97;;;5.30;28.50;;;;;;5098753;28;20052;-73
2021/10/27 06:25:42;;;;;;;5.15;2.40;;;5.30;31.80;;;;;;5102833;28;20092;-72
2021/10/27 06:28:11;;;;;;;4.07;1.95;;;5.30;22.10;;;;;;5118545;28;20420;-73
2021/10/27 06:30:55;;;;;;;4.60;2.70;;;5.30;23.90;;;;;;5118388;28;20031;-73
2021/10/27 06:33:30;;;;;;;4.15;2.33;;;5.30;25.10;;;;;;5119278;28;20061;-72
2021/10/27 06:35:59;;;;;;;3.47;2.60;;;5.20;26.30;;;;;;5118765;28;20044;-72
2021/10/27 06:46:39;;;;;;;13.43;9.68;;;5.40;16.50;;;;;;5116740;28;20066;-72
2021/10/27 06:49:06;;;;;;;5.68;3.97;;;5.40;20.10;;;;;;5115242;28;20528;-72
2021/10/27 06:51:33;;;;;;;4.88;3.83;;;5.40;21.70;;;;;;5112007;28;20052;-72
2021/10/27 06:53:59;;;;;;;3.60;2.55;;;5.30;20.80;;;;;;5113845;28;20035;-72
2021/10/27 06:56:25;;;;;;;3.65;2.75;;;5.40;17.10;;;;;;5115470;28;20041;-72
2021/10/27 07:15:01;;;;;;;3.90;2.67;;;5.50;19.90;;;;;;5054189;28;20178;-73
2021/10/27 07:17:32;;;;;;;3.72;2.58;;;5.50;17.70;;;;;;5092643;28;20040;-72
2021/10/27 07:20:00;;;;;;;4.30;2.80;;;5.60;17.70;;;;;;5095869;28;20066;-72
2021/10/27 07:22:25;;;;;;;6.68;3.03;;;5.80;16.40;;;;;;5101875;28;20124;-71
2021/10/27 07:24:52;;;;;;;4.75;2.90;;;5.80;13.50;;;;;;5114603;28;20526;-71
2021/10/27 07:27:19;;;;;;;5.78;2.90;;;5.90;10.60;;;;;;5114996;28;20138;-71
2021/10/27 07:29:45;;;;;;;4.50;3.05;;;6.00;12.30;;;;;;5094789;28;20116;-70
2021/10/27 07:32:15;;;;;;;6.15;3.03;;;6.10;13.10;;;;;;5113759;28;20032;-71
2021/10/27 07:34:50;;;;;;;8.63;2.78;;;6.30;7.10;;;;;;5114558;28;20092;-71
2021/10/27 07:42:36;;;;;;;8.88;3.58;;;6.40;3.00;;;;;;5095342;28;20503;-71
2021/10/27 07:45:03;;;;;;;4.97;3.15;;;6.30;5.70;;;;;;5095275;28;20043;-71
2021/10/27 07:47:30;;;;;;;4.88;3.33;;;6.30;9.30;;;;;;5095943;28;20062;-71
2021/10/27 07:49:56;;;;;;;5.13;3.28;;;6.40;9.70;;;;;;5094920;28;20505;-70
2021/10/27 07:52:22;;;;;;;5.53;3.55;;;6.50;8.70;;;;;;5094884;28;20075;-71
2021/10/27 07:54:48;;;;;;;6.85;3.58;;;6.60;8.60;;;;;;5095432;28;20414;-71
2021/10/27 07:57:14;;;;;;;3.58;2.60;;;6.50;8.60;;;;;;5094984;28;20056;-71
2021/10/27 07:59:40;;;;;;;6.50;4.22;;;6.60;14.00;;;;;;5094985;28;20051;-71
2021/10/27 08:02:06;;;;;;;17.42;10.45;;;6.70;13.40;;;;;;5094553;28;20437;-70
2021/10/27 08:04:34;;;;;;;5.07;2.90;;;6.70;12.50;;;;;;5095899;28;20048;-71
2021/10/27 08:07:01;;;;;;;4.65;2.88;;;6.90;8.40;;;;;;5096031;28;20032;-71
2021/10/27 08:09:27;;;;;;;9.30;4.72;;;6.90;5.10;;;;;;5096569;28;20047;-70
2021/10/27 08:11:52;;;;;;;5.97;3.25;;;7.00;5.80;;;;;;5096353;28;20040;-70
2021/10/27 08:14:18;;;;;;;5.20;3.03;;;7.00;10.30;;;;;;5095536;28;20040;-70
2021/10/27 08:16:45;;;;;;;5.25;2.83;;;7.00;13.20;;;;;;5094181;28;20036;-70
2021/10/27 08:19:11;;;;;;;9.65;3.70;;;6.90;19.40;;;;;;5095139;28;20067;-70
2021/10/27 08:21:37;;;;;;;6.68;3.75;;;7.00;22.40;;;;;;5095054;28;20039;-70
2021/10/27 08:24:04;;;;;;;3.90;2.65;;;7.00;22.30;;;;;;5095592;28;20047;-70
2021/10/27 08:26:30;;;;;;;4.75;2.88;;;7.10;22.20;;;;;;5095945;28;20110;-70
2021/10/27 08:28:58;;;;;;;6.95;2.95;;;7.20;23.20;;;;;;5096270;28;20178;-70
2021/10/27 08:31:33;;;;;;;3.67;3.00;;;7.20;25.10;;;;;;5095859;28;20036;-70
2021/10/27 08:34:13;;;;;;;4.90;2.85;;;7.30;27.60;;;;;;5096249;28;20051;-70
2021/10/27 08:36:40;;;;;;;10.75;5.28;;;7.30;31.30;;;;;;5096447;28;20036;-70
2021/10/27 08:39:08;;;;;;;6.05;3.50;;;7.40;32.20;;;;;;5095966;28;20043;-70
2021/10/27 08:41:34;;;;;;;3.50;2.13;;;7.50;31.30;;;;;;5107869;28;20043;-71
2021/10/27 08:44:00;;;;;;;4.65;2.50;;;7.70;34.00;;;;;;5115942;28;20475;-70
2021/10/27 08:46:27;;;;;;;4.20;2.20;;;7.80;33.70;;;;;;5115647;28;20040;-71
2021/10/27 08:48:55;;;;;;;20.30;8.45;;;8.00;32.70;;;;;;5116215;28;20118;-70
2021/10/27 08:51:27;;;;;;;5.47;2.92;;;8.00;27.80;;;;;;5115767;28;20066;-71
2021/10/27 08:53:54;;;;;;;6.43;2.15;;;8.10;31.60;;;;;;5116579;28;20040;-71
2021/10/27 08:56:20;;;;;;;3.30;1.55;;;8.10;39.70;;;;;;5116164;28;20047;-71
2021/10/27 08:58:50;;;;;;;2.58;1.77;;;8.30;27.00;;;;;;5116323;28;20039;-70
2021/10/27 09:37:33;;;;;;;4.88;2.20;;;9.60;20.70;;;;;;5109824;28;20120;-71
2021/10/27 10:05:11;;;;;;;4.45;2.17;;;11.00;1.00;;;;;;5093809;28;20083;-70
2021/10/27 10:07:38;;;;;;;7.07;2.25;;;11.10;1.00;;;;;;5114166;28;20039;-70
2021/10/27 10:10:06;;;;;;;5.40;1.90;;;11.00;1.00;;;;;;5113979;28;20035;-70
2021/10/27 10:12:40;;;;;;;6.55;1.98;;;11.10;1.00;;;;;;5114393;28;20063;-70
2021/10/27 10:15:07;;;;;;;5.70;1.52;;;11.40;1.00;;;;;;5114528;28;20047;-70
2021/10/27 10:17:37;;;;;;;3.03;2.45;;;11.50;1.00;;;;;;5112619;28;20074;-70
2021/10/27 10:20:05;;;;;;;6.60;1.65;;;11.50;1.00;;;;;;5114298;28;20490;-70
2021/10/27 10:22:37;;;;;;;5.90;0.95;;;11.70;1.00;;;;;;5114075;28;20498;-71
2021/10/27 10:25:14;;;;;;;1.48;0.90;;;12.10;1.00;;;;;;5114524;28;20039;-70
2021/10/27 10:27:47;;;;;;;1.95;1.10;;;12.30;1.00;;;;;;5102299;28;20035;-70
2021/10/27 10:30:33;;;;;;;2.20;1.38;;;12.40;1.00;;;;;;5114329;28;20556;-71
2021/10/27 10:33:06;;;;;;;3.15;1.77;;;12.30;1.00;;;;;;5114332;28;20082;-71
2021/10/27 10:36:01;;;;;;;4.03;1.55;;;12.30;1.00;;;;;;5113940;28;20038;-71
2021/10/27 10:59:25;;;;;;;5.75;2.13;;;13.30;1.00;;;;;;5094457;28;20546;-72
2021/10/27 11:24:31;;;;;;;;;;;14.40;1.00;;;;;;5105817;28;20054;-70
2021/10/27 11:38:18;;;;;;;1.15;1.00;;;14.50;1.00;;;;;;5116727;28;20039;-72
2021/10/27 11:40:47;;;;;;;3.25;1.08;;;14.60;1.00;;;;;;5116951;28;20055;-72
2021/10/27 11:43:34;;;;;;;3.55;1.30;;;14.60;1.00;;;;;;5109448;28;20036;-72
2021/10/27 11:48:44;;;;;;;2.00;1.33;;;14.40;1.00;;;;;;5107402;28;20051;-72
2021/10/27 11:51:14;;;;;;;1.35;1.08;;;14.50;1.00;;;;;;5116683;28;20111;-72
2021/10/27 11:53:49;;;;;;;5.10;1.35;;;14.60;1.00;;;;;;5117022;27;20494;-72
2021/10/27 11:56:22;;;;;;;1.95;1.48;;;14.70;1.00;;;;;;5116743;28;20039;-72
2021/10/27 11:58:51;;;;;;;1.35;1.02;;;14.40;1.00;;;;;;5116121;28;20080;-72
2021/10/27 12:01:37;;;;;;;5.28;2.00;;;14.60;1.00;;;;;;5115311;28;20043;-72
2021/10/27 12:04:11;;;;;;;3.85;1.40;;;14.50;1.00;;;;;;5122451;27;20100;-73
2021/10/27 12:15:10;;;;;;;1.95;1.27;;;15.00;1.00;;;;;;5114787;28;20180;-73
2021/10/27 12:19:50;;;;;;;5.03;1.40;;;14.70;1.00;;;;;;5114735;28;20406;-74
2021/10/27 12:22:23;;;;;;;4.90;1.30;;;14.80;1.00;;;;;;5115007;28;20039;-73
2021/10/27 12:24:57;;;;;;;3.05;1.20;;;15.00;1.00;;;;;;5105015;28;20043;-73
2021/10/27 12:27:35;;;;;;;3.20;1.00;;;15.20;1.00;;;;;;5114951;28;20470;-73
2021/10/27 12:30:06;;;;;;;4.07;1.60;;;15.20;1.00;;;;;;5115890;28;20031;-73
2021/10/27 12:32:33;;;;;;;1.20;1.10;;;15.20;1.00;;;;;;5115842;28;20039;-72
2021/10/27 12:35:08;;;;;;;1.80;1.42;;;15.10;1.00;;;;;;5115810;28;20043;-73
2021/10/27 12:37:46;;;;;;;2.60;1.80;;;15.10;1.00;;;;;;5115715;28;20103;-73
2021/10/27 12:40:26;;;;;;;3.83;1.50;;;15.10;1.00;;;;;;5115388;28;20044;-73
2021/10/27 12:43:08;;;;;;;3.03;1.43;;;15.40;1.00;;;;;;5116177;28;20040;-72
2021/10/27 12:45:50;;;;;;;1.85;1.45;;;15.40;1.00;;;;;;5106231;28;20500;-73
2021/10/27 12:48:34;;;;;;;3.17;2.30;;;15.50;1.00;;;;;;5083419;28;20040;-73
2021/10/27 12:51:03;;;;;;;6.07;1.70;;;15.50;1.00;;;;;;5096297;28;20051;-73
2021/10/27 12:53:35;;;;;;;2.72;1.27;;;15.50;1.00;;;;;;5096952;28;20044;-73
2021/10/27 12:56:24;;;;;;;3.08;1.50;;;15.70;1.00;;;;;;5093099;28;20047;-73
2021/10/27 12:58:59;;;;;;;1.80;1.27;;;15.60;1.00;;;;;;5094465;28;20036;-72
2021/10/27 13:01:39;;;;;;;2.72;1.58;;;15.50;1.00;;;;;;5094073;28;20044;-73
2021/10/27 13:06:46;;;;;;;3.10;1.60;;;15.50;1.00;;;;;;5095267;28;20039;-73
2021/10/27 13:30:45;;;;;;;2.58;1.50;;;15.40;1.00;;;;;;5094372;28;20074;-72
2021/10/27 13:33:11;;;;;;;1.30;1.10;;;15.40;1.00;;;;;;5094290;28;20032;-74
2021/10/27 13:35:37;;;;;;;2.20;1.35;;;15.40;1.00;;;;;;5093546;28;20414;-72
2021/10/27 13:38:04;;;;;;;3.22;1.30;;;15.60;1.00;;;;;;5094242;28;20035;-72
2021/10/27 13:40:31;;;;;;;5.82;1.60;;;15.50;1.00;;;;;;5098278;28;20052;-72
2021/10/27 13:43:08;;;;;;;6.57;1.48;;;15.40;1.00;;;;;;5114020;28;20054;-72
2021/10/27 14:09:20;;;;;;;3.42;1.50;;;15.10;1.00;;;;;;5114436;28;20118;-71
2021/10/27 14:14:29;;;;;;;3.58;1.92;;;15.20;1.00;;;;;;5113462;28;20126;-72
2021/10/27 14:40:58;;;;;;;5.13;2.10;;;15.10;1.00;;;;;;5118309;28;20082;-72
2021/10/27 15:21:29;;;;;;;4.07;2.38;;;14.30;1.00;;;;;;5117388;28;20505;-72
2021/10/27 15:24:28;;;;;;;;;;;14.10;1.00;;;;;;5117632;28;20101;-72
2021/10/27 15:32:35;;;;;;;5.55;2.60;;;14.00;1.00;;;;;;5117132;28;20402;-72
2021/10/27 15:40:40;;;;;;;8.38;2.97;;;14.00;1.00;;;;;;5117159;28;20050;-71
2021/10/27 15:51:06;;;;;;;5.30;3.20;;;13.70;1.00;;;;;;5117076;28;20447;-71
2021/10/27 15:53:33;;;;;;;4.50;2.55;;;13.50;1.00;;;;;;5116972;28;20035;-71
2021/10/27 15:55:59;;;;;;;6.30;3.08;;;13.50;1.00;;;;;;5116655;28;20091;-71
2021/10/27 15:58:25;;;;;;;8.85;2.97;;;13.50;1.00;;;;;;5117206;28;20127;-71
2021/10/27 16:00:51;;;;;;;6.45;2.85;;;13.60;1.00;;;;;;5116696;28;20043;-71
2021/10/27 16:03:17;;;;;;;7.95;3.40;;;13.70;1.00;;;;;;5116380;28;20108;-71
2021/10/27 16:05:46;;;;;;;7.15;4.22;;;13.60;1.00;;;;;;5117482;28;20031;-71
2021/10/27 16:08:14;;;;;;;8.80;4.57;;;13.40;1.00;;;;;;5116479;28;20035;-71
2021/10/27 16:10:41;;;;;;;6.55;3.40;;;13.30;1.00;;;;;;5116248;28;20070;-71
2021/10/27 16:13:07;;;;;;;5.53;3.35;;;13.20;1.00;;;;;;5116590;28;20137;-71
2021/10/27 16:15:37;;;;;;;8.38;3.30;;;13.20;1.00;;;;;;5116429;28;20058;-71
2021/10/27 16:18:08;;;;;;;6.63;3.63;;;13.10;1.00;;;;;;5116045;28;20035;-71
2021/10/27 16:20:36;;;;;;;7.68;4.07;;;13.30;1.00;;;;;;5116517;28;20123;-71
2021/10/27 16:23:04;;;;;;;9.32;3.80;;;13.10;1.00;;;;;;5116311;28;20062;-71
2021/10/27 16:25:30;;;;;;;10.07;3.60;;;12.90;1.00;;;;;;5115888;28;20127;-71
2021/10/27 16:27:58;;;;;;;5.80;3.60;;;12.90;1.00;;;;;;5116114;28;20063;-71
2021/10/27 16:30:25;;;;;;;10.75;4.72;;;13.00;1.00;;;;;;5116128;28;20088;-71
2021/10/27 16:32:51;;;;;;;19.85;8.63;;;12.80;1.00;;;;;;5116078;28;20126;-71
2021/10/27 16:35:17;;;;;;;11.27;5.88;;;12.70;1.00;;;;;;5115858;28;20575;-71
2021/10/27 16:37:43;;;;;;;11.75;6.38;;;12.70;1.00;;;;;;5115950;28;20043;-71
2021/10/27 16:40:10;;;;;;;12.68;7.78;;;12.60;1.00;;;;;;5115841;28;20058;-71
2021/10/27 16:42:37;;;;;;;11.85;6.50;;;12.60;1.00;;;;;;5116389;28;20043;-71
2021/10/27 16:45:08;;;;;;;11.82;5.38;;;12.60;1.00;;;;;;5116069;28;20047;-71
2021/10/27 16:47:33;;;;;;;;;;;12.40;1.00;;;;;;5116437;28;20043;-71
2021/10/27 16:50:00;;;;;;;8.25;4.55;;;12.40;1.00;;;;;;5116457;28;20293;-71
2021/10/27 16:52:26;;;;;;;10.85;5.45;;;12.40;1.00;;;;;;5116087;28;20066;-71
2021/10/27 16:54:53;;;;;;;8.68;5.00;;;12.50;1.00;;;;;;5116038;28;20134;-71
2021/10/27 16:57:19;;;;;;;8.40;4.32;;;12.30;1.00;;;;;;5115881;28;20035;-71
2021/10/27 16:59:45;;;;;;;14.82;7.97;;;12.00;1.00;;;;;;5116278;28;20043;-71
2021/10/27 17:02:11;;;;;;;10.05;5.20;;;12.00;1.00;;;;;;5115392;28;20106;-71
2021/10/27 17:04:37;;;;;;;8.77;4.85;;;11.80;1.00;;;;;;5115830;28;20047;-71
2021/10/27 17:07:03;;;;;;;7.40;4.85;;;11.70;1.00;;;;;;5115851;28;20039;-71
2021/10/27 17:09:29;;;;;;;10.15;4.20;;;11.60;1.00;;;;;;5116439;28;20046;-71
2021/10/27 17:11:55;;;;;;;6.28;3.80;;;11.50;1.00;;;;;;5115911;28;20027;-71
2021/10/27 17:14:21;;;;;;;6.68;4.45;;;11.50;1.00;;;;;;5116366;28;20124;-71
2021/10/27 17:16:47;;;;;;;6.70;4.72;;;11.40;1.00;;;;;;5115258;28;20485;-71
2021/10/27 17:19:13;;;;;;;6.82;4.30;;;11.40;1.00;;;;;;5115278;28;20035;-71
2021/10/27 17:21:42;;;;;;;12.70;7.97;;;11.30;1.00;;;;;;5115595;28;20087;-70
2021/10/27 17:24:13;;;;;;;19.23;12.38;;;11.30;1.00;;;;;;5096775;28;20522;-71
2021/10/27 17:26:41;;;;;;;18.15;10.25;;;11.20;1.00;;;;;;5115267;28;20402;-71
2021/10/27 17:29:07;;;;;;;14.98;8.65;;;11.10;1.00;;;;;;5116346;28;20036;-71
2021/10/27 17:31:33;;;;;;;13.23;7.80;;;11.00;1.00;;;;;;5114709;28;20057;-71
2021/10/27 17:33:59;;;;;;;18.90;7.60;;;11.00;1.00;;;;;;5115135;28;20103;-71
2021/10/27 17:36:26;;;;;;;12.82;6.63;;;10.90;1.00;;;;;;5114843;28;20067;-71
2021/10/27 17:38:55;;;;;;;18.27;10.70;;;10.80;1.00;;;;;;5115123;28;20061;-71
2021/10/27 17:41:24;;;;;;;23.08;12.40;;;10.80;1.00;;;;;;5114576;28;20146;-71
2021/10/27 17:43:52;;;;;;;24.17;16.50;;;10.80;1.00;;;;;;5114943;28;20040;-71
2021/10/27 17:46:22;;;;;;;16.92;9.75;;;10.80;1.00;;;;;;5115464;28;20031;-71
2021/10/27 17:49:10;;;;;;;21.35;9.98;;;10.70;1.00;;;;;;5115018;28;20088;-71
2021/10/27 17:51:46;;;;;;;20.67;13.80;;;10.50;1.00;;;;;;5114628;28;20565;-71
2021/10/27 17:59:41;;;;;;;17.17;9.57;;;10.40;1.00;;;;;;5113732;28;20035;-71
2021/10/27 18:02:07;;;;;;;116.88;64.53;;;10.30;1.00;;;;;;5088205;28;20032;-72